createdAt,value
2022-12-25T00:01:15.955Z,2.90
2022-12-25T00:03:43.618Z,2.55
2022-12-25T00:06:10.601Z,4.47
2022-12-25T00:08:39.266Z,3.53
2022-12-25T00:11:09.431Z,7.95
2022-12-25T00:13:36.282Z,6.95
2022-12-25T00:16:15.012Z,5.70
2022-12-25T00:18:41.753Z,6.47
2022-12-25T00:21:08.517Z,7.22
2022-12-25T00:23:35.910Z,8.75
2022-12-25T00:26:07.870Z,8.18
2022-12-25T00:28:36.237Z,14.20
2022-12-25T00:31:08.516Z,9.38
2022-12-25T00:33:40.432Z,10.27
2022-12-25T00:36:08.966Z,10.32
2022-12-25T00:38:38.311Z,11.02
2022-12-25T00:41:11.665Z,12.35
2022-12-25T00:43:38.738Z,11.00
2022-12-25T00:46:06.649Z,11.98
2022-12-25T00:48:34.769Z,17.33
2022-12-25T00:51:07.076Z,18.75
2022-12-25T00:53:33.822Z,16.65
2022-12-25T00:56:06.153Z,16.73
2022-12-25T00:58:34.481Z,17.80
2022-12-25T01:01:01.138Z,11.45
2022-12-25T01:03:28.076Z,8.67
2022-12-25T01:06:06.284Z,15.97
2022-12-25T01:08:35.719Z,13.00
2022-12-25T01:11:05.927Z,11.82
2022-12-25T01:13:35.234Z,17.90
2022-12-25T01:16:09.736Z,18.33
2022-12-25T01:18:37.094Z,14.75
2022-12-25T01:21:08.134Z,15.82
2022-12-25T01:23:35.222Z,11.77
2022-12-25T01:26:06.668Z,23.27
2022-12-25T01:28:33.642Z,15.48
2022-12-25T01:31:00.447Z,14.73
2022-12-25T01:33:27.455Z,18.88
2022-12-25T01:35:54.222Z,11.57
2022-12-25T01:38:21.241Z,9.18
2022-12-25T01:40:48.029Z,10.63
2022-12-25T01:43:24.302Z,12.37
2022-12-25T01:45:52.803Z,11.90
2022-12-25T01:48:22.715Z,13.43
2022-12-25T01:50:55.900Z,14.03
2022-12-25T01:53:24.579Z,14.57
2022-12-25T01:55:57.531Z,17.35
2022-12-25T01:58:25.351Z,14.35
2022-12-25T02:00:52.880Z,25.63
2022-12-25T02:03:21.673Z,22.53
2022-12-25T02:05:48.852Z,18.88
2022-12-25T02:08:17.487Z,12.70
2022-12-25T02:10:44.983Z,8.47
2022-12-25T02:13:17.274Z,9.60
2022-12-25T02:15:56.079Z,10.63
2022-12-25T02:18:42.210Z,12.40
2022-12-25T02:21:14.487Z,9.00
2022-12-25T02:23:49.802Z,8.73
2022-12-25T02:26:22.791Z,17.13
2022-12-25T02:29:07.954Z,16.83
2022-12-25T02:31:59.838Z,11.15
2022-12-25T02:34:38.613Z,7.10
2022-12-25T02:37:38.526Z,17.37
2022-12-25T02:40:20.748Z,11.20
2022-12-25T02:43:12.070Z,16.50
2022-12-25T02:46:15.472Z,8.43
2022-12-25T02:49:06.861Z,11.67
2022-12-25T02:51:56.062Z,12.27
2022-12-25T02:54:49.395Z,10.30
2022-12-25T02:57:37.236Z,9.20
2022-12-25T03:00:35.428Z,9.97
2022-12-25T03:03:25.700Z,8.17
2022-12-25T03:06:15.630Z,11.43
2022-12-25T03:08:45.104Z,8.40
2022-12-25T03:11:31.306Z,11.83
2022-12-25T03:14:23.793Z,12.53
2022-12-25T03:16:55.391Z,11.97
2022-12-25T03:19:43.655Z,11.77
2022-12-25T03:22:35.642Z,13.27
2022-12-25T03:25:21.525Z,13.33
2022-12-25T03:27:52.536Z,13.70
2022-12-25T03:30:39.428Z,11.57
2022-12-25T03:33:36.775Z,11.53
2022-12-25T03:36:15.594Z,14.00
2022-12-25T03:39:16.778Z,17.23
2022-12-25T03:42:05.035Z,9.87
2022-12-25T03:45:38.475Z,14.13
2022-12-25T03:48:13.540Z,17.63
2022-12-25T03:51:12.522Z,9.90
2022-12-25T03:54:05.595Z,16.60
2022-12-25T03:56:52.091Z,11.57
2022-12-25T03:59:39.678Z,14.97
2022-12-25T04:02:25.372Z,17.37
2022-12-25T04:05:10.712Z,11.20
2022-12-25T04:10:41.456Z,19.70
2022-12-25T04:13:26.935Z,17.60
2022-12-25T04:16:12.583Z,35.40
2022-12-25T04:19:08.788Z,24.27
2022-12-25T04:21:53.776Z,21.77
2022-12-25T04:24:39.348Z,20.60
2022-12-25T04:27:24.725Z,22.50
2022-12-25T04:30:10.274Z,30.23
2022-12-25T04:32:55.465Z,28.20
2022-12-25T04:38:07.452Z,23.23
2022-12-25T04:40:34.114Z,26.27
2022-12-25T04:43:01.004Z,31.43
2022-12-25T04:45:27.698Z,28.20
2022-12-25T04:47:54.346Z,29.43
2022-12-25T04:50:21.079Z,25.97
2022-12-25T04:52:47.722Z,27.50
2022-12-25T04:55:14.498Z,46.40
2022-12-25T04:57:41.267Z,34.13
2022-12-25T05:00:08.631Z,32.10
2022-12-25T05:02:35.407Z,32.50
2022-12-25T05:05:02.726Z,26.83
2022-12-25T05:07:29.509Z,34.47
2022-12-25T05:09:56.188Z,30.07
2022-12-25T05:12:22.966Z,38.93
2022-12-25T05:14:49.674Z,35.70
2022-12-25T05:17:16.559Z,33.00
2022-12-25T05:19:43.412Z,34.13
2022-12-25T05:22:10.121Z,34.23
2022-12-25T05:24:36.740Z,38.13
2022-12-25T05:27:03.761Z,31.03
2022-12-25T05:29:30.523Z,30.20
2022-12-25T05:31:57.293Z,32.93
2022-12-25T05:34:24.046Z,34.67
2022-12-25T05:36:50.730Z,32.20
2022-12-25T05:39:17.390Z,45.73
2022-12-25T05:41:44.427Z,41.43
2022-12-25T05:44:11.159Z,45.47
2022-12-25T05:46:37.862Z,47.03
2022-12-25T05:49:05.833Z,47.30
2022-12-25T05:51:32.619Z,49.37
2022-12-25T05:53:59.491Z,49.70
2022-12-25T05:56:26.566Z,67.00
2022-12-25T05:58:54.385Z,88.10
2022-12-25T06:01:24.767Z,75.37
2022-12-25T06:03:53.235Z,55.40
2022-12-25T06:06:20.366Z,57.57
2022-12-25T06:08:47.024Z,64.00
2022-12-25T06:11:15.205Z,78.70
2022-12-25T06:13:42.376Z,74.10
2022-12-25T06:16:11.060Z,82.70
2022-12-25T06:18:46.423Z,89.00
2022-12-25T06:21:15.119Z,76.67
2022-12-25T06:23:42.268Z,75.90
2022-12-25T06:26:15.378Z,77.87
2022-12-25T06:28:42.257Z,84.33
2022-12-25T06:31:11.439Z,90.70
2022-12-25T06:33:39.052Z,93.87
2022-12-25T06:36:08.256Z,98.37
2022-12-25T06:38:35.294Z,110.90
2022-12-25T06:41:13.842Z,115.50
2022-12-25T06:43:40.641Z,115.37
2022-12-25T06:46:10.180Z,102.97
2022-12-25T06:48:38.818Z,90.50
2022-12-25T06:51:06.990Z,83.03
2022-12-25T06:53:40.628Z,67.10
2022-12-25T06:56:16.507Z,66.28
2022-12-25T06:58:44.993Z,46.83
2022-12-25T07:01:17.511Z,53.95
2022-12-25T07:03:46.070Z,50.95
2022-12-25T07:06:12.897Z,48.50
2022-12-25T07:08:39.783Z,56.72
2022-12-25T07:11:06.936Z,65.40
2022-12-25T07:13:33.790Z,67.32
2022-12-25T07:16:03.646Z,70.45
2022-12-25T07:18:31.460Z,55.67
2022-12-25T07:20:59.803Z,120.30
2022-12-25T07:23:27.261Z,65.97
2022-12-25T07:25:59.739Z,48.55
2022-12-25T07:28:27.007Z,48.50
2022-12-25T07:30:55.334Z,45.85
2022-12-25T07:33:22.075Z,25.02
2022-12-25T07:35:48.865Z,19.80
2022-12-25T07:38:15.594Z,15.07
2022-12-25T07:40:45.562Z,29.08
2022-12-25T07:43:12.697Z,19.58
2022-12-25T07:45:39.697Z,19.25
2022-12-25T07:48:09.493Z,15.63
2022-12-25T07:50:40.264Z,7.43
2022-12-25T07:53:07.167Z,8.35
2022-12-25T07:55:33.927Z,7.22
2022-12-25T07:58:00.542Z,4.32
2022-12-25T08:00:30.096Z,11.32
2022-12-25T08:02:56.996Z,7.30
2022-12-25T08:05:23.861Z,8.60
2022-12-25T08:07:57.759Z,5.60
2022-12-25T08:10:25.017Z,4.63
2022-12-25T08:12:52.148Z,3.15
2022-12-25T08:15:19.174Z,6.25
2022-12-25T08:17:46.206Z,6.10
2022-12-25T08:20:13.611Z,2.78
2022-12-25T08:22:44.679Z,5.47
2022-12-25T08:25:11.399Z,5.85
2022-12-25T08:27:38.113Z,2.30
2022-12-25T08:30:05.430Z,3.80
2022-12-25T08:32:33.849Z,2.40
2022-12-25T08:35:01.197Z,3.97
2022-12-25T08:37:30.760Z,2.00
2022-12-25T08:39:57.426Z,2.53
2022-12-25T08:42:24.310Z,5.97
2022-12-25T08:44:51.009Z,3.90
2022-12-25T08:47:17.956Z,6.45
2022-12-25T08:49:44.579Z,3.88
2022-12-25T08:52:11.681Z,5.07
2022-12-25T08:54:38.326Z,5.88
2022-12-25T08:57:05.138Z,4.35
2022-12-25T08:59:31.989Z,3.58
2022-12-25T09:01:58.821Z,4.90
2022-12-25T09:04:25.799Z,4.30
2022-12-25T09:06:52.827Z,2.15
2022-12-25T09:09:19.465Z,3.05
2022-12-25T09:11:46.144Z,2.97
2022-12-25T09:14:14.444Z,3.20
2022-12-25T09:16:41.159Z,2.53
2022-12-25T09:19:07.914Z,3.63
2022-12-25T09:21:36.970Z,2.75
2022-12-25T09:24:06.628Z,3.90
2022-12-25T09:26:33.374Z,3.22
2022-12-25T09:29:00.156Z,2.65
2022-12-25T09:31:26.895Z,2.60
2022-12-25T09:33:56.930Z,3.72
2022-12-25T09:36:24.887Z,1.83
2022-12-25T09:38:52.800Z,2.90
2022-12-25T09:41:22.578Z,3.38
2022-12-25T09:43:55.350Z,1.80
2022-12-25T09:46:26.456Z,3.83
2022-12-25T09:49:06.852Z,2.30
2022-12-25T09:51:37.645Z,3.58
2022-12-25T09:54:13.384Z,3.20
2022-12-25T09:56:40.131Z,8.63
2022-12-25T09:59:17.370Z,5.10
2022-12-25T10:01:53.218Z,2.78
2022-12-25T10:04:47.693Z,2.80
2022-12-25T10:07:40.805Z,2.13
2022-12-25T10:10:45.558Z,1.98
2022-12-25T10:13:24.406Z,3.35
2022-12-25T10:15:54.599Z,1.75
2022-12-25T10:18:44.711Z,2.90
2022-12-25T10:21:18.563Z,3.22
2022-12-25T10:24:15.659Z,4.13
2022-12-25T10:26:43.287Z,1.90
2022-12-25T10:29:14.794Z,4.50
2022-12-25T10:31:44.901Z,2.97
2022-12-25T10:34:13.287Z,4.35
2022-12-25T10:36:42.127Z,6.55
2022-12-25T10:39:17.014Z,6.60
2022-12-25T10:42:16.306Z,3.97
2022-12-25T10:44:58.734Z,4.20
2022-12-25T10:47:28.473Z,6.80
2022-12-25T10:49:55.963Z,5.93
2022-12-25T10:52:26.329Z,4.85
2022-12-25T10:54:54.007Z,4.18
2022-12-25T10:57:24.029Z,5.53
2022-12-25T10:59:56.255Z,2.70
2022-12-25T11:02:27.874Z,2.00
2022-12-25T11:05:04.346Z,3.42
2022-12-25T11:07:33.322Z,2.55
2022-12-25T11:10:19.117Z,2.22
2022-12-25T11:12:46.742Z,2.33
2022-12-25T11:15:35.469Z,2.15
2022-12-25T11:18:04.914Z,2.05
2022-12-25T11:20:33.320Z,2.05
2022-12-25T11:23:00.426Z,2.05
2022-12-25T11:25:28.450Z,2.40
2022-12-25T11:28:05.571Z,3.28
2022-12-25T11:30:33.877Z,2.10
2022-12-25T11:33:07.142Z,1.95
2022-12-25T11:35:47.676Z,1.75
2022-12-25T11:38:14.877Z,3.40
2022-12-25T11:40:47.032Z,2.30
2022-12-25T11:43:22.729Z,3.22
2022-12-25T11:45:54.950Z,2.22
2022-12-25T11:48:28.813Z,2.28
2022-12-25T11:50:59.378Z,3.05
2022-12-25T11:53:41.548Z,2.47
2022-12-25T11:56:16.359Z,2.30
2022-12-25T11:59:12.477Z,2.45
2022-12-25T12:01:53.881Z,2.60
2022-12-25T12:04:40.333Z,1.85
2022-12-25T12:07:25.755Z,2.00
2022-12-25T12:10:03.055Z,3.92
2022-12-25T12:12:48.275Z,4.18
2022-12-25T12:15:31.103Z,3.03
2022-12-25T12:18:23.109Z,2.10
2022-12-25T12:21:11.356Z,2.67
2022-12-25T12:24:08.919Z,2.65
2022-12-25T12:26:41.179Z,1.90
2022-12-25T12:29:24.524Z,2.20
2022-12-25T12:31:52.604Z,3.35
2022-12-25T12:34:55.550Z,3.10
2022-12-25T12:37:34.282Z,2.25
2022-12-25T12:40:02.468Z,2.90
2022-12-25T12:42:40.431Z,1.75
2022-12-25T12:45:10.966Z,15.80
2022-12-25T12:47:41.539Z,1.83
2022-12-25T12:50:28.125Z,2.55
2022-12-25T12:52:54.885Z,1.80
2022-12-25T12:55:33.311Z,3.20
2022-12-25T12:58:05.747Z,2.50
2022-12-25T13:01:03.685Z,1.13
2022-12-25T13:03:39.707Z,2.05
2022-12-25T13:06:26.009Z,2.30
2022-12-25T13:09:06.801Z,2.65
2022-12-25T13:11:39.975Z,2.45
2022-12-25T13:14:13.587Z,3.53
2022-12-25T13:16:42.637Z,3.67
2022-12-25T13:19:16.374Z,2.63
2022-12-25T13:21:55.859Z,3.53
2022-12-25T13:24:26.327Z,2.55
2022-12-25T13:26:54.257Z,3.22
2022-12-25T13:29:34.645Z,3.00
2022-12-25T13:32:04.311Z,4.82
2022-12-25T13:34:37.796Z,8.68
2022-12-25T13:37:10.503Z,5.18
2022-12-25T13:39:45.167Z,6.97
2022-12-25T13:42:17.425Z,4.10
2022-12-25T13:44:48.489Z,4.70
2022-12-25T13:47:27.060Z,5.22
2022-12-25T13:49:57.103Z,2.65
2022-12-25T13:52:35.720Z,3.42
2022-12-25T13:55:11.236Z,5.50
2022-12-25T13:57:41.051Z,8.02
2022-12-25T14:00:17.385Z,6.95
2022-12-25T14:02:46.419Z,7.63
2022-12-25T14:05:24.516Z,6.38
2022-12-25T14:07:56.739Z,7.50
2022-12-25T14:10:26.501Z,6.80
2022-12-25T14:12:56.108Z,8.10
2022-12-25T14:15:24.045Z,6.88
2022-12-25T14:17:52.061Z,7.75
2022-12-25T14:20:27.234Z,7.30
2022-12-25T14:22:57.563Z,10.00
2022-12-25T14:25:31.521Z,9.77
2022-12-25T14:27:59.510Z,8.15
2022-12-25T14:30:28.969Z,6.68
2022-12-25T14:32:56.829Z,7.80
2022-12-25T14:35:24.963Z,8.88
2022-12-25T14:37:57.683Z,9.43
2022-12-25T14:40:28.496Z,15.07
2022-12-25T14:43:03.365Z,22.63
2022-12-25T14:45:34.702Z,26.48
2022-12-25T14:48:39.394Z,41.83
2022-12-25T14:51:16.340Z,37.28
2022-12-25T14:53:54.856Z,35.05
2022-12-25T14:56:23.489Z,63.78
2022-12-25T14:58:56.850Z,51.50
2022-12-25T15:01:44.883Z,39.55
2022-12-25T15:04:15.190Z,100.13
2022-12-25T15:07:00.235Z,68.32
2022-12-25T15:09:29.846Z,94.63
2022-12-25T15:11:56.914Z,84.18
2022-12-25T15:14:25.668Z,68.88
2022-12-25T15:16:55.270Z,61.28
2022-12-25T15:19:34.788Z,73.22
2022-12-25T15:22:04.126Z,118.65
2022-12-25T15:24:30.886Z,160.70
2022-12-25T15:27:00.316Z,98.90
2022-12-25T15:32:21.610Z,105.72
2022-12-25T15:34:50.041Z,108.53
2022-12-25T15:37:18.317Z,118.70
2022-12-25T15:39:46.169Z,148.00
2022-12-25T15:42:19.560Z,102.95
2022-12-25T15:44:46.792Z,140.13
2022-12-25T15:47:16.119Z,138.73
2022-12-25T15:49:43.807Z,162.90
2022-12-25T15:52:14.453Z,93.40
2022-12-25T15:54:41.207Z,175.40
2022-12-25T15:57:15.959Z,105.35
2022-12-25T15:59:42.707Z,98.97
2022-12-25T16:02:18.812Z,85.40
2022-12-25T16:04:46.306Z,82.38
2022-12-25T16:07:20.526Z,87.95
2022-12-25T16:09:47.400Z,54.95
2022-12-25T16:12:14.179Z,53.47
2022-12-25T16:14:41.568Z,92.50
2022-12-25T16:17:12.069Z,105.30
2022-12-25T16:19:38.813Z,134.20
2022-12-25T16:22:20.354Z,85.22
2022-12-25T16:24:47.742Z,53.42
2022-12-25T16:27:14.444Z,93.75
2022-12-25T16:29:42.589Z,140.13
2022-12-25T16:32:15.019Z,255.00
2022-12-25T16:34:41.731Z,164.63
2022-12-25T16:37:08.563Z,140.27
2022-12-25T16:39:35.196Z,110.38
2022-12-25T16:42:01.855Z,109.97
2022-12-25T16:44:28.977Z,86.57
2022-12-25T16:46:55.759Z,86.80
2022-12-25T16:49:22.495Z,93.85
2022-12-25T16:51:50.590Z,94.03
2022-12-25T16:54:17.309Z,87.47
2022-12-25T16:56:44.019Z,83.25
2022-12-25T16:59:11.048Z,77.55
2022-12-25T17:01:43.283Z,67.35
2022-12-25T17:04:10.390Z,69.60
2022-12-25T17:06:37.696Z,68.47
2022-12-25T17:09:04.750Z,66.68
2022-12-25T17:11:32.127Z,79.07
2022-12-25T17:14:02.773Z,123.45
2022-12-25T17:16:32.328Z,104.30
2022-12-25T17:19:01.581Z,104.78
2022-12-25T17:21:29.437Z,93.25
2022-12-25T17:24:02.304Z,103.72
2022-12-25T17:26:33.197Z,93.60
2022-12-25T17:29:00.036Z,77.57
2022-12-25T17:31:26.842Z,78.65
2022-12-25T17:33:54.171Z,71.40
2022-12-25T17:36:21.995Z,79.55
2022-12-25T17:38:48.787Z,70.13
2022-12-25T17:41:17.613Z,67.03
2022-12-25T17:43:45.906Z,73.65
2022-12-25T17:46:24.869Z,81.60
2022-12-25T17:48:52.724Z,89.88
2022-12-25T17:51:21.887Z,79.25
2022-12-25T17:53:51.933Z,74.68
2022-12-25T17:56:19.692Z,92.55
2022-12-25T17:58:57.523Z,80.97
2022-12-25T18:01:26.410Z,83.03
2022-12-25T18:03:54.390Z,97.28
2022-12-25T18:06:24.221Z,60.28
2022-12-25T18:08:50.914Z,67.90
2022-12-25T18:11:20.793Z,52.00
2022-12-25T18:13:52.264Z,50.38
2022-12-25T18:16:24.410Z,97.57
2022-12-25T18:18:52.995Z,100.53
2022-12-25T18:21:21.596Z,99.30
2022-12-25T18:23:49.273Z,125.33
2022-12-25T18:26:16.437Z,103.35
2022-12-25T18:28:44.224Z,93.73
2022-12-25T18:31:14.922Z,106.13
2022-12-25T18:33:42.349Z,95.90
2022-12-25T18:36:11.069Z,110.87
2022-12-25T18:38:37.735Z,109.60
2022-12-25T18:41:06.598Z,111.87
2022-12-25T18:43:53.847Z,107.60
2022-12-25T18:46:22.474Z,97.80
2022-12-25T18:48:49.372Z,94.30
2022-12-25T18:51:16.419Z,87.33
2022-12-25T18:53:43.308Z,97.30
2022-12-25T18:56:13.211Z,81.30
2022-12-25T18:58:40.142Z,87.17
2022-12-25T19:01:21.951Z,76.17
2022-12-25T19:03:49.974Z,82.03
2022-12-25T19:06:25.320Z,80.37
2022-12-25T19:08:52.769Z,93.83
2022-12-25T19:11:20.430Z,87.00
2022-12-25T19:13:47.511Z,83.67
2022-12-25T19:16:14.486Z,78.03
2022-12-25T19:18:42.363Z,79.50
2022-12-25T19:21:09.906Z,74.70
2022-12-25T19:23:38.117Z,54.10
2022-12-25T19:26:06.057Z,67.70
2022-12-25T19:28:33.180Z,81.80
2022-12-25T19:31:01.073Z,91.53
2022-12-25T19:33:28.293Z,79.37
2022-12-25T19:36:00.656Z,71.60
2022-12-25T19:38:27.741Z,78.40
2022-12-25T19:41:03.614Z,74.80
2022-12-25T19:43:35.753Z,77.67
2022-12-25T19:46:03.738Z,72.93
2022-12-25T19:48:32.020Z,43.77
2022-12-25T19:50:58.989Z,57.90
2022-12-25T19:53:26.038Z,68.07
2022-12-25T19:55:54.043Z,66.30
2022-12-25T19:58:22.105Z,66.93
2022-12-25T20:01:05.462Z,64.00
2022-12-25T20:03:40.222Z,50.57
2022-12-25T20:06:19.931Z,59.13
2022-12-25T20:08:47.890Z,74.15
2022-12-25T20:11:15.192Z,67.83
2022-12-25T20:13:42.005Z,61.27
2022-12-25T20:16:10.606Z,66.97
2022-12-25T20:18:38.273Z,68.47
2022-12-25T20:21:08.096Z,75.67
2022-12-25T20:23:35.285Z,76.97
2022-12-25T20:26:04.861Z,82.33
2022-12-25T20:28:34.682Z,84.77
2022-12-25T20:31:06.525Z,84.10
2022-12-25T20:33:34.191Z,63.20
2022-12-25T20:36:05.244Z,71.60
2022-12-25T20:38:32.462Z,60.93
2022-12-25T20:43:52.278Z,55.63
2022-12-25T20:46:19.191Z,87.40
2022-12-25T20:48:46.100Z,80.17
2022-12-25T20:51:16.118Z,80.80
2022-12-25T20:53:43.636Z,66.67
2022-12-25T20:56:12.487Z,63.93
2022-12-25T20:58:39.733Z,51.83
2022-12-25T21:01:09.206Z,57.27
2022-12-25T21:03:35.942Z,58.23
2022-12-25T21:06:06.648Z,53.53
2022-12-25T21:08:36.744Z,52.80
2022-12-25T21:11:05.190Z,60.33
2022-12-25T21:13:35.430Z,49.73
2022-12-25T21:16:06.795Z,62.40
2022-12-25T21:18:33.519Z,61.87
2022-12-25T21:21:04.760Z,65.70
2022-12-25T21:23:31.840Z,82.77
2022-12-25T21:25:58.736Z,82.77
2022-12-25T21:28:30.221Z,109.87
2022-12-25T21:31:02.692Z,58.33
2022-12-25T21:33:49.192Z,42.60
2022-12-25T21:36:16.059Z,36.90
2022-12-25T21:38:42.794Z,34.93
2022-12-25T21:41:12.398Z,52.00
2022-12-25T21:43:40.390Z,51.90
2022-12-25T21:46:09.569Z,46.83
2022-12-25T21:48:41.510Z,49.40
2022-12-25T21:51:31.967Z,52.33
2022-12-25T21:53:59.703Z,204.73
2022-12-25T21:56:31.151Z,56.40
2022-12-25T21:59:06.725Z,48.77
2022-12-25T22:01:34.050Z,45.03
2022-12-25T22:04:05.877Z,50.70
2022-12-25T22:06:52.106Z,59.80
2022-12-25T22:09:19.427Z,47.03
2022-12-25T22:12:04.946Z,41.67
2022-12-25T22:14:54.231Z,43.20
2022-12-25T22:17:46.431Z,78.50
2022-12-25T22:20:19.255Z,75.23
2022-12-25T22:22:46.189Z,72.83
2022-12-25T22:25:14.001Z,67.10
2022-12-25T22:27:42.195Z,81.20
2022-12-25T22:30:15.471Z,64.50
2022-12-25T22:32:42.200Z,53.97
2022-12-25T22:35:09.644Z,61.73
2022-12-25T22:37:36.646Z,63.40
2022-12-25T22:40:04.479Z,64.60
2022-12-25T22:42:31.260Z,54.87
2022-12-25T22:44:58.426Z,53.37
2022-12-25T22:47:25.175Z,38.00
2022-12-25T22:49:51.860Z,41.40
2022-12-25T22:52:18.987Z,41.07
2022-12-25T22:54:45.876Z,47.97
2022-12-25T22:57:12.703Z,40.03
2022-12-25T22:59:39.496Z,37.17
2022-12-25T23:02:06.315Z,36.73
2022-12-25T23:04:33.066Z,37.20
2022-12-25T23:06:59.958Z,37.63
2022-12-25T23:09:29.661Z,41.57
2022-12-25T23:11:58.194Z,43.97
2022-12-25T23:14:41.931Z,36.27
2022-12-25T23:17:32.179Z,32.27
2022-12-25T23:20:19.951Z,34.60
2022-12-25T23:23:05.412Z,41.17
2022-12-25T23:25:54.086Z,41.17
2022-12-25T23:28:40.963Z,43.50
2022-12-25T23:31:08.264Z,46.37
2022-12-25T23:33:35.157Z,41.70
2022-12-25T23:36:01.795Z,38.07
2022-12-25T23:38:28.896Z,36.60
2022-12-25T23:40:55.622Z,32.70
2022-12-25T23:43:22.321Z,34.63
2022-12-25T23:45:49.160Z,37.80
2022-12-25T23:48:15.807Z,37.10
2022-12-25T23:50:42.484Z,31.87
2022-12-25T23:53:11.162Z,26.80
2022-12-25T23:55:37.967Z,23.50
2022-12-25T23:58:05.085Z,27.43
